Time;durP1;ratioP1;P1;durP2;ratioP2;P2;SDS_P1;SDS_P2;PMS_P1;PMS_P2;Temp;Humidity;BMP_temperature;BMP_pressure;BME280_temperature;BME280_humidity;BME280_pressure;Samples;Min_cycle;Max_cycle;Signal;HPM_P1;HPM_P2
2023/10/17 00:00:39;;;;;;;19.40;6.65;;;;;;;11.06;58.32;101453.03;5110330;28;20321;-77
2023/10/17 00:03:10;;;;;;;22.65;6.47;;;;;;;11.02;58.42;101459.59;5110402;28;20032;-77
2023/10/17 00:05:36;;;;;;;14.00;6.03;;;;;;;10.88;58.43;101448.00;5110401;28;20028;-76
2023/10/17 00:08:04;;;;;;;11.73;5.05;;;;;;;10.88;58.70;101456.06;5110152;28;20107;-77
2023/10/17 00:10:35;;;;;;;6.22;3.80;;;;;;;10.82;58.71;101451.06;5057899;28;20039;-77
2023/10/17 00:15:46;;;;;;;5.80;2.83;;;;;;;10.67;58.37;101425.22;5107982;28;20139;-76
2023/10/17 00:18:15;;;;;;;16.52;4.32;;;;;;;10.78;58.20;101441.50;5107634;28;20039;-76
2023/10/17 00:20:43;;;;;;;5.65;3.05;;;;;;;10.73;58.49;101449.03;5110221;28;20084;-77
2023/10/17 00:23:12;;;;;;;4.82;2.13;;;;;;;10.58;59.21;101439.31;5110014;28;20056;-78
2023/10/17 00:25:42;;;;;;;6.70;3.10;;;;;;;10.59;59.05;101451.81;5109971;28;20035;-78
2023/10/17 00:28:10;;;;;;;11.07;2.95;;;;;;;10.60;59.30;101450.84;5110292;28;20102;-76
2023/10/17 00:30:38;;;;;;;6.13;3.05;;;;;;;10.67;59.02;101449.44;5110090;28;20046;-77
2023/10/17 00:33:05;;;;;;;6.97;2.67;;;;;;;10.61;58.85;101446.34;5110067;28;20023;-76
2023/10/17 00:35:38;;;;;;;4.63;2.30;;;;;;;10.62;59.04;101445.34;5091086;28;20057;-76
2023/10/17 00:38:07;;;;;;;3.30;2.17;;;;;;;10.56;59.01;101435.00;5109884;28;20391;-76
2023/10/17 00:40:37;;;;;;;7.03;2.35;;;;;;;10.58;59.10;101422.34;5110211;28;20050;-76
2023/10/17 00:43:04;;;;;;;4.68;2.20;;;;;;;10.59;58.98;101424.91;5109911;28;20019;-76
2023/10/17 00:45:32;;;;;;;3.83;2.38;;;;;;;10.58;58.81;101439.31;5109832;28;20032;-77
2023/10/17 00:47:59;;;;;;;6.30;2.00;;;;;;;10.58;59.33;101433.94;5109725;28;20030;-76
2023/10/17 00:50:26;;;;;;;9.63;2.33;;;;;;;10.53;59.40;101414.56;5109645;28;20058;-76
2023/10/17 00:52:51;;;;;;;6.38;2.10;;;;;;;10.60;59.17;101425.78;5110095;28;20040;-77
2023/10/17 00:55:18;;;;;;;3.22;1.85;;;;;;;10.41;59.24;101415.41;5109826;28;20028;-76
2023/10/17 00:57:45;;;;;;;6.70;2.28;;;;;;;10.55;59.32;101433.31;5112073;28;20106;-76
2023/10/17 01:03:01;;;;;;;8.00;3.13;;;;;;;10.67;59.22;101436.00;5050584;28;20413;-77
2023/10/17 01:05:27;;;;;;;6.35;3.10;;;;;;;10.67;59.84;101427.09;5050392;28;20131;-76
2023/10/17 01:07:53;;;;;;;10.88;4.22;;;;;;;10.56;59.50;101410.81;5050570;28;20536;-77
2023/10/17 01:10:18;;;;;;;16.92;6.65;;;;;;;10.76;59.33;101438.03;5050459;28;20029;-76
2023/10/17 01:13:03;;;;;;;25.70;9.88;;;;;;;10.76;59.65;101438.03;5050500;28;20052;-77
2023/10/17 01:15:35;;;;;;;24.13;13.57;;;;;;;10.77;59.70;101446.97;5049793;28;20064;-76
2023/10/17 01:18:04;;;;;;;28.75;15.50;;;;;;;10.74;59.75;101442.69;5050341;28;20039;-77
2023/10/17 01:20:30;;;;;;;31.58;17.08;;;;;;;10.74;59.53;101453.44;5050423;28;20128;-77
2023/10/17 01:22:56;;;;;;;28.83;18.25;;;;;;;10.64;59.88;101440.75;5050190;28;20415;-77
2023/10/17 01:25:25;;;;;;;36.85;20.05;;;;;;;10.50;60.31;101420.16;5050080;28;20037;-77
2023/10/17 01:27:51;;;;;;;35.92;19.90;;;;;;;10.59;59.93;101435.66;5050155;28;20036;-77
2023/10/17 01:30:17;;;;;;;35.08;17.98;;;;;;;10.70;59.90;101437.63;5050026;28;20140;-76
2023/10/17 01:32:44;;;;;;;23.83;15.60;;;;;;;10.63;59.71;101434.50;5050062;28;20041;-77
2023/10/17 01:35:10;;;;;;;31.40;17.73;;;;;;;10.64;59.87;101441.59;5049712;28;20482;-76
2023/10/17 01:37:36;;;;;;;23.70;14.55;;;;;;;10.61;59.92;101449.88;5049932;28;20032;-76
2023/10/17 01:40:09;;;;;;;25.75;14.18;;;;;;;10.51;60.06;101442.53;5081210;28;20040;-77
2023/10/17 01:42:35;;;;;;;24.15;14.20;;;;;;;10.49;60.66;101450.69;5112889;28;20047;-77
2023/10/17 01:45:06;;;;;;;26.75;15.90;;;;;;;10.53;60.82;101446.84;5112827;28;20714;-77
2023/10/17 01:47:31;;;;;;;26.00;14.55;;;;;;;10.40;60.69;101424.44;5112628;28;20555;-77
2023/10/17 01:49:57;;;;;;;29.50;14.63;;;;;;;10.60;60.65;101455.38;5112734;28;20024;-77
2023/10/17 01:52:24;;;;;;;31.02;18.98;;;;;;;10.63;60.43;101453.34;5112592;28;20028;-76
2023/10/17 01:54:49;;;;;;;36.13;18.80;;;;;;;10.54;59.90;101421.69;5112429;27;20483;-76
2023/10/17 01:57:17;;;;;;;42.00;21.60;;;;;;;10.67;59.91;101454.00;5112485;28;20054;-76
2023/10/17 01:59:42;;;;;;;36.33;19.20;;;;;;;10.70;59.79;101451.09;5112695;28;20034;-76
2023/10/17 02:02:08;;;;;;;50.13;21.02;;;;;;;10.70;59.83;101454.63;5112485;28;20023;-78
2023/10/17 02:04:35;;;;;;;33.38;17.65;;;;;;;10.69;60.02;101457.44;5112538;28;20406;-78
2023/10/17 02:07:02;;;;;;;31.48;15.32;;;;;;;10.67;59.38;101444.06;5112413;28;20051;-76
2023/10/17 02:12:00;;;;;;;23.98;13.77;;;;;;;10.64;59.63;101436.22;5112579;27;20421;-76
2023/10/17 02:14:26;;;;;;;30.33;14.13;;;;;;;10.57;59.68;101418.78;5112114;28;20044;-76
2023/10/17 02:16:52;;;;;;;24.65;14.43;;;;;;;10.60;59.77;101421.25;5112662;28;20024;-78
2023/10/17 02:19:25;;;;;;;20.08;13.15;;;;;;;10.56;59.75;101400.91;5112599;28;20433;-76
2023/10/17 02:21:53;;;;;;;14.55;10.25;;;;;;;10.68;59.81;101432.34;5112170;28;20111;-77
2023/10/17 02:24:19;;;;;;;26.52;11.18;;;;;;;10.73;59.51;101443.63;5111976;28;20479;-77
2023/10/17 02:27:07;;;;;;;18.27;10.30;;;;;;;10.65;59.53;101435.25;5112404;28;20023;-76
2023/10/17 02:29:38;;;;;;;17.02;10.52;;;;;;;10.61;60.08;101416.75;5111944;28;20024;-77
2023/10/17 02:32:05;;;;;;;19.65;10.70;;;;;;;10.70;60.04;101430.41;5110713;28;20039;-77
2023/10/17 02:34:31;;;;;;;22.42;12.15;;;;;;;10.59;59.99;101430.28;5111699;28;20111;-77
2023/10/17 02:37:00;;;;;;;24.60;13.52;;;;;;;10.59;60.19;101445.56;5092498;28;20043;-77
2023/10/17 02:39:25;;;;;;;71.70;19.38;;;;;;;10.38;60.50;101419.19;5111881;28;20058;-77
2023/10/17 02:42:09;;;;;;;30.65;15.80;;;;;;;10.63;60.25;101436.31;5111923;28;20063;-77
2023/10/17 02:44:43;;;;;;;33.22;16.90;;;;;;;10.62;60.41;101435.47;5111562;28;20490;-77
2023/10/17 02:47:12;;;;;;;36.05;19.50;;;;;;;10.64;60.69;101438.91;5111440;28;20038;-77
2023/10/17 02:49:38;;;;;;;37.20;19.35;;;;;;;10.48;60.65;101416.72;5076500;28;20108;-77
2023/10/17 02:52:05;;;;;;;48.97;20.02;;;;;;;10.43;60.64;101412.63;5111757;27;20026;-76
2023/10/17 02:54:34;;;;;;;39.42;17.77;;;;;;;10.67;60.39;101441.38;5111410;28;20043;-76
2023/10/17 02:57:00;;;;;;;27.48;15.50;;;;;;;10.72;60.56;101441.94;5111534;28;20552;-76
2023/10/17 02:59:28;;;;;;;28.75;14.95;;;;;;;10.69;60.37;101430.53;5111436;28;20027;-77
2023/10/17 03:01:53;;;;;;;29.35;14.30;;;;;;;10.70;60.48;101427.72;5111236;28;20027;-77
2023/10/17 03:04:23;;;;;;;39.80;14.73;;;;;;;10.66;60.36;101436.97;5111158;28;20023;-76
2023/10/17 03:06:54;;;;;;;21.60;12.48;;;;;;;10.63;60.44;101426.44;5111312;28;20024;-77
2023/10/17 03:12:06;;;;;;;37.67;16.25;;;;;;;10.62;61.02;101429.22;5111216;28;20023;-76
2023/10/17 03:17:10;;;;;;;42.58;16.90;;;;;;;10.43;61.29;101434.16;5111192;27;20020;-75
2023/10/17 03:19:37;;;;;;;33.30;18.30;;;;;;;10.36;61.54;101445.31;5110201;28;20536;-76
2023/10/17 03:24:44;;;;;;;47.72;21.25;;;;;;;10.36;61.66;101439.06;5110740;28;20059;-78
2023/10/17 03:29:54;;;;;;;48.70;20.77;;;;;;;10.33;61.49;101432.09;5110671;28;20045;-77
2023/10/17 03:32:22;;;;;;;51.13;21.90;;;;;;;10.33;61.19;101433.91;5110618;28;20422;-77
2023/10/17 03:34:56;;;;;;;41.05;21.98;;;;;;;10.34;61.47;101435.59;5109325;28;20034;-76
2023/10/17 03:40:14;;;;;;;41.45;22.73;;;;;;;10.29;61.55;101440.44;5110254;28;20039;-78
2023/10/17 03:45:18;;;;;;;51.58;26.13;;;;;;;10.21;61.52;101424.81;5110006;28;20445;-76
2023/10/17 03:47:53;;;;;;;58.03;24.10;;;;;;;10.32;61.67;101442.94;5110202;28;20394;-76
2023/10/17 03:55:50;;;;;;;75.88;25.90;;;;;;;10.32;61.63;101445.63;5109975;28;20034;-78
2023/10/17 04:00:52;;;;;;;66.05;28.77;;;;;;;10.36;61.25;101450.69;5109771;28;20491;-77
2023/10/17 04:08:37;;;;;;;59.72;30.65;;;;;;;10.21;61.81;101445.47;5107273;28;20030;-76
2023/10/17 04:11:25;;;;;;;56.13;28.65;;;;;;;10.13;61.90;101423.56;5109649;28;20031;-77
2023/10/17 04:13:55;;;;;;;81.13;32.10;;;;;;;10.30;61.72;101444.88;5109728;28;20406;-77
2023/10/17 04:16:27;;;;;;;69.75;30.77;;;;;;;10.26;61.83;101429.91;5109761;28;20020;-76
2023/10/17 04:19:07;;;;;;;57.97;29.52;;;;;;;10.07;61.89;101399.78;5109651;28;20028;-77
2023/10/17 04:21:45;;;;;;;64.05;28.17;;;;;;;10.34;61.77;101435.59;5109958;28;20031;-76
2023/10/17 04:24:10;;;;;;;77.30;28.75;;;;;;;10.33;61.33;101436.59;5109849;28;20521;-76
2023/10/17 04:26:36;;;;;;;64.20;28.77;;;;;;;10.31;61.69;101431.31;5110108;28;20027;-77
2023/10/17 04:29:21;;;;;;;78.75;29.83;;;;;;;10.29;61.70;101427.00;5109895;28;20038;-77
2023/10/17 04:31:47;;;;;;;68.57;31.58;;;;;;;10.28;61.59;101430.66;5112739;28;20030;-77
2023/10/17 04:34:21;;;;;;;73.70;31.02;;;;;;;10.23;61.57;101432.78;5114448;28;20472;-77
2023/10/17 04:36:56;;;;;;;96.95;30.23;;;;;;;10.27;61.58;101420.88;5114378;28;20023;-76
2023/10/17 04:39:48;;;;;;;60.17;29.98;;;;;;;10.09;61.71;101396.03;5114250;28;20020;-76
2023/10/17 04:42:19;;;;;;;82.67;29.83;;;;;;;10.35;61.50;101426.59;5113957;28;20035;-77
2023/10/17 04:44:51;;;;;;;74.18;29.33;;;;;;;10.31;61.78;101436.69;5114162;28;20104;-77
2023/10/17 04:49:54;;;;;;;73.30;30.88;;;;;;;10.35;61.45;101442.72;5113853;28;20028;-77
2023/10/17 04:52:23;;;;;;;96.20;29.20;;;;;;;10.34;61.50;101444.53;5114053;28;20524;-77
2023/10/17 04:54:53;;;;;;;81.82;28.05;;;;;;;10.38;61.52;101447.88;5114175;28;20028;-79
2023/10/17 04:57:19;;;;;;;83.75;29.73;;;;;;;10.22;61.71;101441.81;5113783;28;20068;-80
2023/10/17 06:18:31;;;;;;;67.82;24.65;;;;;;;11.61;58.28;101468.81;5112266;28;20030;-80
2023/10/17 06:21:06;;;;;;;75.28;24.27;;;;;;;11.81;58.51;101488.00;5112251;28;20054;-80
2023/10/17 06:29:00;;;;;;;79.47;27.23;;;;;;;12.34;57.07;101480.47;5112059;28;20023;-81
2023/10/17 06:31:37;;;;;;;71.10;25.98;;;;;;;12.29;57.20;101455.69;5111864;28;20114;-79
2023/10/17 06:34:07;;;;;;;83.22;27.30;;;;;;;12.57;57.07;101487.66;5112036;28;20098;-80
2023/10/17 06:36:32;;;;;;;61.88;25.85;;;;;;;12.65;56.44;101479.88;5111612;28;20038;-79
2023/10/17 06:39:12;;;;;;;60.10;26.88;;;;;;;12.93;55.96;101484.88;5112065;28;20027;-80
2023/10/17 06:41:38;;;;;;;61.50;26.58;;;;;;;13.18;55.97;101488.38;5111711;28;20031;-81
2023/10/17 06:44:08;;;;;;;65.82;28.40;;;;;;;13.28;55.24;101481.25;5110093;28;20064;-81
2023/10/17 06:46:55;;;;;;;81.15;30.40;;;;;;;13.42;54.96;101486.44;5111351;28;20118;-80
2023/10/17 06:54:41;;;;;;;90.35;32.70;;;;;;;13.65;53.25;101471.94;5110174;28;20028;-81
2023/10/17 06:57:19;;;;;;;102.40;34.13;;;;;;;13.42;53.27;101421.59;5111609;28;20073;-79
2023/10/17 06:59:51;;;;;;;83.32;32.05;;;;;;;13.61;53.29;101481.28;5111333;28;20020;-79
2023/10/17 07:02:31;;;;;;;79.28;32.72;;;;;;;13.55;53.48;101479.06;5111193;28;20023;-80
2023/10/17 07:05:00;;;;;;;104.50;34.80;;;;;;;13.63;53.77;101495.53;5111366;28;20023;-79
2023/10/17 07:07:33;;;;;;;80.15;31.40;;;;;;;13.58;53.33;101457.19;5111451;28;20031;-79
2023/10/17 07:10:16;;;;;;;106.82;36.28;;;;;;;13.55;53.22;101452.91;5111142;28;20054;-79
2023/10/17 07:12:50;;;;;;;70.70;32.70;;;;;;;13.81;53.50;101487.78;5111086;28;20413;-80
2023/10/17 07:15:19;;;;;;;91.45;33.33;;;;;;;13.92;53.50;101485.91;5110752;28;20108;-81
2023/10/17 07:18:39;;;;;;;85.80;31.75;;;;;;;13.97;53.00;101472.91;5110814;28;20072;-79
2023/10/17 07:23:27;;;;;;;100.25;32.17;;;;;;;14.19;53.15;101469.25;5111070;28;20739;-78
2023/10/17 07:25:56;;;;;;;74.97;29.85;;;;;;;14.37;53.03;101473.16;5110814;27;20158;-79
2023/10/17 07:28:22;;;;;;;60.53;29.52;;;;;;;14.51;53.05;101470.16;5110378;28;20028;-79
2023/10/17 07:30:57;;;;;;;65.18;26.08;;;;;;;14.64;52.75;101461.88;5110833;28;20024;-81
2023/10/17 07:33:25;;;;;;;74.50;24.58;;;;;;;14.79;52.20;101486.78;5110811;28;20034;-78
2023/10/17 07:35:56;;;;;;;54.75;24.27;;;;;;;14.89;52.30;101464.16;5109218;28;20031;-81
2023/10/17 07:38:27;;;;;;;69.68;25.67;;;;;;;15.07;51.88;101457.19;5110509;28;20051;-79
2023/10/17 07:41:09;;;;;;;51.28;21.27;;;;;;;15.11;52.10;101434.22;5110369;28;20098;-80
2023/10/17 07:43:36;;;;;;;62.47;21.38;;;;;;;15.43;51.49;101468.50;5109118;28;20030;-80
2023/10/17 07:46:07;;;;;;;59.20;21.67;;;;;;;15.42;51.72;101450.50;5110265;28;20027;-80
2023/10/17 07:48:34;;;;;;;51.22;20.20;;;;;;;15.66;51.27;101461.91;5110493;28;20023;-79
2023/10/17 07:51:00;;;;;;;58.00;18.67;;;;;;;15.87;51.14;101454.53;5110115;28;20031;-83
2023/10/17 07:53:26;;;;;;;87.93;22.13;;;;;;;15.98;50.78;101459.88;5110573;28;20384;-80
2023/10/17 07:56:02;;;;;;;52.28;20.70;;;;;;;16.10;51.07;101434.34;5110316;28;20459;-82
2023/10/17 07:58:46;;;;;;;48.83;15.70;;;;;;;16.36;50.95;101452.78;5110286;28;20471;-80
2023/10/17 08:01:15;;;;;;;12.35;4.65;;;;;;;16.30;52.33;101456.91;5078987;28;20088;-78
2023/10/17 08:03:45;;;;;;;12.20;3.00;;;;;;;16.18;52.51;101426.34;5110041;28;20056;-79
2023/10/17 08:06:12;;;;;;;17.92;3.78;;;;;;;16.59;52.70;101457.84;5109703;28;20027;-80
2023/10/17 08:08:43;;;;;;;17.20;3.85;;;;;;;16.71;52.52;101451.25;5108809;28;20024;-80
2023/10/17 08:13:57;;;;;;;14.18;2.55;;;;;;;16.92;51.73;101421.19;5066542;28;20048;-80
2023/10/17 08:16:32;;;;;;;8.63;2.03;;;;;;;17.00;52.09;101444.91;5006926;28;20048;-78
2023/10/17 08:19:13;;;;;;;8.55;3.03;;;;;;;17.01;52.02;101436.59;5007315;28;20077;-80
2023/10/17 08:24:26;;;;;;;11.70;2.40;;;;;;;17.09;52.03;101434.03;5006937;28;20029;-81
2023/10/17 08:30:00;;;;;;;13.68;3.13;;;;;;;17.50;51.33;101431.84;4967932;28;20105;-79
2023/10/17 08:34:59;;;;;;;28.35;3.13;;;;;;;17.36;51.49;101425.94;4967880;28;20034;-80
2023/10/17 08:37:40;;;;;;;19.75;2.42;;;;;;;17.38;51.03;101418.47;4968112;28;20054;-80
2023/10/17 08:40:29;;;;;;;20.65;3.50;;;;;;;17.15;51.64;101408.97;4968026;28;20042;-79
2023/10/17 08:42:52;;;;;;;18.27;3.70;;;;;;;17.26;51.39;101419.66;4967626;28;20043;-80
2023/10/17 08:45:19;;;;;;;8.40;2.83;;;;;;;17.46;51.82;101435.91;4967757;28;20141;-80
2023/10/17 08:47:46;;;;;;;15.73;2.65;;;;;;;17.40;51.24;101419.16;4983239;28;20845;-80
2023/10/17 08:50:15;;;;;;;11.52;3.22;;;;;;;17.63;51.11;101427.84;5010047;28;20117;-80
2023/10/17 08:52:43;;;;;;;11.10;2.42;;;;;;;17.76;50.80;101424.75;5026799;28;20041;-80
2023/10/17 08:55:09;;;;;;;16.45;1.95;;;;;;;17.87;50.81;101438.16;5026603;28;20083;-80
2023/10/17 08:57:37;;;;;;;14.00;3.55;;;;;;;17.93;50.56;101413.91;5026586;28;20030;-80
2023/10/17 09:02:35;;;;;;;;;;;;;;;18.19;50.06;101424.91;5027248;28;20037;-79
2023/10/17 09:05:25;;;;;;;11.73;2.55;;;;;;;18.17;50.13;101429.63;5051771;28;19953;-81
2023/10/17 09:07:55;;;;;;;19.15;3.75;;;;;;;18.20;50.14;101415.72;5109577;28;20106;-80
2023/10/17 09:10:51;;;;;;;6.40;2.55;;;;;;;18.17;50.22;101420.63;5109541;28;20548;-79
2023/10/17 09:15:57;;;;;;;19.27;5.45;;;;;;;18.28;49.76;101407.66;5109481;28;20048;-80
2023/10/17 09:18:27;;;;;;;27.15;3.63;;;;;;;18.28;50.08;101396.75;5110927;28;20064;-79
2023/10/17 09:20:54;;;;;;;10.95;2.90;;;;;;;18.44;49.86;101407.78;5113028;27;20063;-79
2023/10/17 09:23:28;;;;;;;18.67;3.20;;;;;;;18.50;49.85;101406.31;5113417;28;20046;-79
2023/10/17 09:25:55;;;;;;;11.65;2.88;;;;;;;18.38;50.17;101402.09;5112860;28;20510;-80
2023/10/17 09:28:24;;;;;;;22.55;3.28;;;;;;;18.35;50.13;101397.81;5113074;28;20074;-81
2023/10/17 09:31:06;;;;;;;8.98;2.78;;;;;;;18.33;50.10;101402.56;5113212;28;20414;-80
2023/10/17 09:33:33;;;;;;;32.97;4.33;;;;;;;18.17;50.39;101388.81;5111663;28;20027;-80
2023/10/17 09:36:05;;;;;;;4.57;1.98;;;;;;;17.84;51.26;101384.03;5112958;28;20024;-79
2023/10/17 09:38:34;;;;;;;18.20;2.50;;;;;;;17.85;51.74;101402.06;5112748;28;20107;-82
2023/10/17 09:41:05;;;;;;;9.07;3.95;;;;;;;17.86;51.61;101393.75;5111652;28;20128;-79
2023/10/17 09:43:31;;;;;;;22.05;2.78;;;;;;;17.71;51.58;101361.75;5112692;28;20057;-81
2023/10/17 09:46:04;;;;;;;12.07;2.70;;;;;;;17.95;51.87;101389.25;5112616;28;20031;-80
2023/10/17 09:48:35;;;;;;;19.98;3.15;;;;;;;18.07;51.78;101377.13;5111366;28;20047;-81
2023/10/17 09:51:04;;;;;;;9.57;2.63;;;;;;;18.13;51.43;101381.13;5112717;28;20028;-81
2023/10/17 09:53:35;;;;;;;11.90;3.38;;;;;;;18.14;51.57;101369.19;5112553;28;20032;-80
2023/10/17 09:56:06;;;;;;;37.30;4.65;;;;;;;17.81;52.78;101347.09;5112535;28;20111;-82
2023/10/17 09:58:35;;;;;;;13.68;2.75;;;;;;;18.07;52.86;101366.22;5112473;28;20612;-80
2023/10/17 10:01:06;;;;;;;7.20;2.70;;;;;;;18.07;52.47;101351.78;5112692;28;20024;-80
2023/10/17 10:03:35;;;;;;;15.85;2.15;;;;;;;18.27;52.47;101345.16;5112716;28;20114;-80
2023/10/17 10:06:26;;;;;;;11.30;2.45;;;;;;;18.72;52.11;101366.81;5112411;28;20028;-81
2023/10/17 10:08:56;;;;;;;7.85;1.90;;;;;;;18.62;51.22;101355.19;5112187;28;20032;-80
2023/10/17 10:11:53;;;;;;;15.60;2.50;;;;;;;18.82;50.15;101357.53;5112234;28;20060;-80
2023/10/17 10:14:27;;;;;;;8.95;2.08;;;;;;;18.93;50.10;101353.66;5112414;28;20681;-81
2023/10/17 10:16:55;;;;;;;23.77;5.00;;;;;;;19.01;50.23;101345.56;5112175;28;20513;-80
2023/10/17 10:19:24;;;;;;;12.60;2.85;;;;;;;19.03;50.04;101341.66;5112629;28;20027;-79
2023/10/17 10:21:59;;;;;;;7.90;2.58;;;;;;;18.94;50.16;101334.44;5112390;28;20110;-81
2023/10/17 10:24:27;;;;;;;19.88;4.03;;;;;;;18.71;50.12;101316.06;5112244;28;20047;-80
2023/10/17 10:27:15;;;;;;;5.72;2.03;;;;;;;18.78;50.00;101330.75;5110816;28;20058;-80
2023/10/17 10:29:45;;;;;;;8.30;2.60;;;;;;;18.58;50.32;101291.97;5111577;28;20036;-80
2023/10/17 10:32:25;;;;;;;15.20;3.72;;;;;;;19.05;49.99;101330.56;5112255;28;20036;-81
2023/10/17 10:34:52;;;;;;;12.23;2.50;;;;;;;19.01;49.91;101316.44;5111679;28;20475;-81
2023/10/17 10:37:20;;;;;;;7.88;2.80;;;;;;;18.98;49.69;101310.44;5111548;28;20027;-78
2023/10/17 10:40:22;;;;;;;23.92;3.63;;;;;;;19.20;50.00;101311.75;5111984;28;20032;-82
2023/10/17 10:42:53;;;;;;;12.75;2.85;;;;;;;19.16;49.49;101289.41;5111788;28;20134;-80
2023/10/17 10:45:47;;;;;;;12.25;3.20;;;;;;;19.24;49.17;101286.69;5109322;28;20654;-79
2023/10/17 10:48:14;;;;;;;80.00;12.55;;;;;;;19.51;48.80;101313.75;5110231;28;20483;-79
2023/10/17 10:50:45;;;;;;;10.85;3.03;;;;;;;19.64;48.29;101309.69;5111805;28;20042;-82
2023/10/17 10:53:24;;;;;;;13.45;2.15;;;;;;;19.72;48.25;101318.78;5111675;28;20036;-81
2023/10/17 10:56:04;;;;;;;6.47;2.05;;;;;;;19.61;47.06;101313.59;5109644;28;20028;-79
2023/10/17 10:58:31;;;;;;;26.45;4.63;;;;;;;19.56;47.38;101316.00;5111366;28;20035;-79
2023/10/17 11:01:02;;;;;;;25.85;3.83;;;;;;;19.43;46.70;101308.28;5111085;28;20039;-81
2023/10/17 11:03:30;;;;;;;8.67;1.83;;;;;;;19.48;46.73;101305.91;5109733;28;20054;-80
2023/10/17 11:06:04;;;;;;;11.73;2.42;;;;;;;19.52;46.73;101290.91;5111078;28;20034;-81
2023/10/17 11:08:37;;;;;;;5.20;1.98;;;;;;;19.55;46.84;101287.84;5111483;28;20558;-79
2023/10/17 11:11:03;;;;;;;13.65;1.90;;;;;;;19.16;46.79;101283.94;5111032;28;20023;-80
2023/10/17 11:13:40;;;;;;;7.32;1.98;;;;;;;19.29;46.89;101283.47;5111050;27;20032;-80
2023/10/17 11:16:06;;;;;;;13.30;2.90;;;;;;;19.42;46.69;101257.44;5110879;28;20114;-82
2023/10/17 11:18:38;;;;;;;36.72;4.93;;;;;;;19.65;45.75;101278.66;5111033;28;20084;-80
2023/10/17 11:21:05;;;;;;;14.27;3.17;;;;;;;19.61;45.66;101278.13;5110964;28;20088;-80
2023/10/17 11:23:33;;;;;;;11.32;3.00;;;;;;;19.47;46.00;101254.22;5111208;28;20035;-79
2023/10/17 11:26:00;;;;;;;7.97;2.10;;;;;;;19.53;45.16;101259.88;5109369;28;20031;-80
2023/10/17 11:28:29;;;;;;;4.80;1.70;;;;;;;19.40;45.22;101273.16;5111195;28;20100;-81
2023/10/17 11:30:58;;;;;;;8.35;1.90;;;;;;;19.37;45.13;101248.03;5110824;28;20762;-80
2023/10/17 11:33:37;;;;;;;4.60;1.90;;;;;;;19.36;44.98;101233.53;5109377;28;20448;-80
2023/10/17 11:36:12;;;;;;;6.13;1.90;;;;;;;19.61;44.94;101267.22;5110602;28;20051;-78
2023/10/17 11:38:40;;;;;;;11.93;2.50;;;;;;;19.69;45.10;101269.97;5110600;28;20028;-80
2023/10/17 11:41:06;;;;;;;7.60;2.20;;;;;;;19.50;45.14;101226.63;5109982;28;20031;-84
2023/10/17 11:43:50;;;;;;;17.45;2.28;;;;;;;19.54;44.74;101217.91;5110549;28;20038;-80
2023/10/17 11:46:27;;;;;;;12.65;2.67;;;;;;;19.57;44.58;101256.81;5110418;28;20085;-81
2023/10/17 11:48:54;;;;;;;7.93;2.15;;;;;;;19.36;45.23;101260.81;5110610;28;20114;-79
2023/10/17 11:51:28;;;;;;;10.68;1.98;;;;;;;19.39;45.00;101257.78;5110389;28;20036;-80
2023/10/17 11:54:06;;;;;;;3.35;1.63;;;;;;;19.40;44.75;101245.88;5108124;28;20100;-80
2023/10/17 11:56:33;;;;;;;11.65;2.67;;;;;;;19.43;44.89;101253.72;5108097;28;20111;-80
2023/10/17 11:59:01;;;;;;;9.98;2.42;;;;;;;19.39;44.83;101235.97;5110404;28;20028;-81
2023/10/17 12:01:28;;;;;;;13.27;2.40;;;;;;;19.44;44.70;101252.69;5110190;28;20046;-79
2023/10/17 12:03:56;;;;;;;13.48;2.00;;;;;;;19.55;44.64;101236.00;5109989;28;20471;-80
2023/10/17 12:06:26;;;;;;;13.18;3.22;;;;;;;19.67;44.12;101219.28;5110155;28;20053;-81
2023/10/17 12:08:53;;;;;;;20.65;4.13;;;;;;;19.60;43.71;101213.66;5110319;28;20019;-79
2023/10/17 12:11:18;;;;;;;13.43;1.83;;;;;;;19.80;43.91;101255.13;5110258;28;20062;-79
2023/10/17 12:13:44;;;;;;;11.38;2.50;;;;;;;19.57;44.29;101226.81;5109820;28;20048;-80
2023/10/17 12:16:09;;;;;;;9.32;2.60;;;;;;;19.22;44.42;101206.91;5110533;28;20031;-81
2023/10/17 12:18:35;;;;;;;21.13;2.22;;;;;;;19.35;44.62;101239.16;5109845;28;20034;-81
2023/10/17 12:21:02;;;;;;;4.35;1.75;;;;;;;19.22;45.06;101236.91;5108660;28;20468;-80
2023/10/17 12:23:30;;;;;;;12.48;2.05;;;;;;;19.03;45.71;101212.63;5110577;28;20035;-80
2023/10/17 12:26:01;;;;;;;9.48;3.25;;;;;;;19.16;45.94;101245.75;5109895;28;20031;-81
2023/10/17 12:28:27;;;;;;;10.27;3.25;;;;;;;19.22;45.93;101212.38;5109670;28;20088;-82
2023/10/17 12:30:54;;;;;;;9.25;2.38;;;;;;;19.30;46.03;101230.63;5110219;28;20436;-80
2023/10/17 12:33:23;;;;;;;94.68;13.60;;;;;;;19.10;46.28;101207.38;5108540;28;20023;-79
2023/10/17 12:35:50;;;;;;;13.63;2.70;;;;;;;19.25;46.28;101233.84;5108637;28;20023;-79
2023/10/17 12:38:25;;;;;;;11.25;2.50;;;;;;;19.15;47.01;101227.69;5109712;28;20180;-81
2023/10/17 12:40:54;;;;;;;11.20;2.17;;;;;;;18.86;47.78;101208.16;5108432;28;20027;-81
2023/10/17 12:43:19;;;;;;;22.67;4.07;;;;;;;18.92;47.10;101208.34;5110233;28;20043;-80
2023/10/17 12:45:46;;;;;;;13.68;2.03;;;;;;;19.07;46.95;101221.34;5109695;28;20200;-81
2023/10/17 12:48:11;;;;;;;9.13;1.70;;;;;;;18.93;46.78;101212.78;5109718;28;20103;-79
2023/10/17 12:50:43;;;;;;;17.85;4.03;;;;;;;19.02;46.56;101216.38;5108176;28;20035;-80
2023/10/17 12:53:12;;;;;;;9.43;2.38;;;;;;;18.97;46.15;101230.53;5112805;28;20027;-80
2023/10/17 12:55:39;;;;;;;14.02;2.20;;;;;;;19.11;45.67;101222.75;5114536;28;20020;-80
2023/10/17 12:58:10;;;;;;;14.75;3.42;;;;;;;19.01;45.91;101199.19;5113684;28;20088;-80
2023/10/17 13:00:37;;;;;;;7.40;2.60;;;;;;;18.94;46.49;101186.38;5113624;28;20534;-80
2023/10/17 13:03:02;;;;;;;8.32;2.40;;;;;;;18.98;47.03;101221.34;5112314;28;20410;-79
2023/10/17 13:05:28;;;;;;;16.67;2.70;;;;;;;18.83;47.56;101205.75;5113324;28;20031;-80
2023/10/17 13:07:53;;;;;;;10.70;3.45;;;;;;;18.86;47.74;101210.88;5113145;28;20031;-80
2023/10/17 13:10:19;;;;;;;4.15;1.60;;;;;;;18.75;48.02;101184.75;5113362;28;20027;-83
2023/10/17 13:12:46;;;;;;;11.90;2.42;;;;;;;18.74;47.62;101201.28;5113580;28;20080;-79
2023/10/17 13:15:14;;;;;;;12.23;2.58;;;;;;;18.53;47.80;101184.50;5112979;27;20114;-79
2023/10/17 13:17:41;;;;;;;9.43;2.88;;;;;;;18.70;47.59;101211.66;5113396;28;20027;-81
2023/10/17 13:20:21;;;;;;;8.18;3.42;;;;;;;18.58;47.10;101206.66;5113918;28;20055;-79
2023/10/17 13:22:47;;;;;;;6.25;2.00;;;;;;;18.62;47.12;101197.16;5113306;28;20062;-80
2023/10/17 13:25:14;;;;;;;5.88;2.17;;;;;;;18.71;47.38;101197.03;5113463;28;20491;-79
2023/10/17 13:27:40;;;;;;;19.13;2.47;;;;;;;18.62;48.04;101164.44;5112963;28;20051;-80
2023/10/17 13:30:06;;;;;;;7.30;2.17;;;;;;;18.62;48.53;101180.81;5113193;28;20042;-80
2023/10/17 13:32:32;;;;;;;18.50;4.05;;;;;;;18.52;48.22;101166.44;5112961;28;20843;-80
2023/10/17 13:34:58;;;;;;;13.88;3.40;;;;;;;18.57;48.29;101174.97;5112837;28;20028;-81
2023/10/17 13:37:26;;;;;;;10.98;3.42;;;;;;;18.42;48.74;101191.91;5113131;28;20024;-81
2023/10/17 13:39:52;;;;;;;39.03;3.70;;;;;;;18.39;49.19;101184.06;5113199;28;20080;-80
2023/10/17 13:42:17;;;;;;;16.90;3.17;;;;;;;18.35;49.85;101199.00;5113002;27;20023;-79
2023/10/17 13:44:43;;;;;;;7.97;2.70;;;;;;;18.37;49.32;101186.09;5112665;28;20475;-78
2023/10/17 13:47:09;;;;;;;14.57;3.35;;;;;;;18.12;49.02;101140.66;5112604;28;20039;-80
2023/10/17 13:49:34;;;;;;;10.68;2.47;;;;;;;18.03;48.96;101114.41;5112455;28;20031;-80
2023/10/17 13:52:00;;;;;;;31.05;3.72;;;;;;;18.15;49.13;101145.78;5112790;28;20027;-81
2023/10/17 13:54:34;;;;;;;5.22;2.08;;;;;;;18.04;48.96;101132.44;5111083;28;20024;-81
2023/10/17 13:57:00;;;;;;;8.57;2.35;;;;;;;18.20;49.27;101170.66;5112535;28;20074;-79
2023/10/17 13:59:38;;;;;;;25.77;4.53;;;;;;;18.17;49.42;101160.09;5112152;28;20534;-80